D/T METAR WX W/DIR W/SPE G/SPE TEMP DEWP
16/01/19 03:50 EGPE 160350Z AUTO 02006KT 9999 BKN029/// 07/04 Q0993 NNE (20°) 6.9mph 7°C 4°C
16/01/19 03:20 EGPE 160320Z 22007KT 9999 FEW012 06/04 Q0993 SW (220°) 8.1mph 6°C 4°C
16/01/19 02:50 EGPE 160250Z 22010KT 9999 FEW012 07/04 Q0993 SW (220°) 11.5mph 7°C 4°C
16/01/19 01:50 EGPE 160150Z 03007KT CAVOK 07/04 Q0994 NNE (30°) 8.1mph 7°C 4°C
15/01/19 22:20 EGPE 152220Z AUTO 22019KT 9999 BKN036/// 10/07 Q0993 SW (220°) 21.9mph 10°C 7°C
15/01/19 21:50 EGPE 152150Z AUTO 22019KT 9999 SCT031/// SCT038/// 09/07 Q0994 SW (220°) 21.9mph 9°C 7°C
15/01/19 21:20 EGPE 152120Z AUTO 22019KT 9999 FEW034/// SCT044/// 09/07 Q0994 SW (220°) 21.9mph 9°C 7°C
15/01/19 20:50 EGPE 152050Z 22019KT 9999 FEW022 SCT038 09/07 Q0995 SW (220°) 21.9mph 9°C 7°C
15/01/19 20:20 EGPE 152020Z 22018G28KT 9999 FEW022 SCT034 09/07 Q0995 SW (220°) 20.7mph 32.2mph 9°C 7°C
15/01/19 19:50 EGPE 151950Z 22018KT 9999 FEW022 SCT034 09/07 Q0996 SW (220°) 20.7mph 9°C 7°C
15/01/19 19:20 EGPE 151920Z 23016KT 9999 FEW022 SCT034 09/06 Q0997 SW (230°) 18.4mph 9°C 6°C
15/01/19 18:50 EGPE 151850Z 23019KT 9999 FEW034 SCT042 09/06 Q0997 SW (230°) 21.9mph 9°C 6°C
15/01/19 18:20 EGPE 151820Z 23020KT 9999 FEW038 SCT042 08/06 Q0998 SW (230°) 23.0mph 8°C 6°C
15/01/19 17:50 EGPE 151750Z 23018KT 9999 SCT028 BKN042 08/06 Q0998 SW (230°) 20.7mph 8°C 6°C
15/01/19 17:20 EGPE 151720Z 22015KT 9999 VCSH SCT028 BKN042 08/06 Q0999 VCSH SW (220°) 17.3mph 8°C 6°C
15/01/19 16:50 EGPE 151650Z 23013KT 9999 VCSH SCT028 BKN046 09/06 Q1000 VCSH SW (230°) 15.0mph 9°C 6°C
15/01/19 15:50 EGPE 151550Z 22009KT 190V260 9999 VCSH FEW022 SCT028 BKN035 09/07 Q1001 VCSH SW (220°) 10.4mph 9°C 7°C
15/01/19 15:20 EGPE 151520Z 23014KT 9999 VCSH FEW022 SCT031 BKN038 10/08 Q1001 VCSH SW (230°) 16.1mph 10°C 8°C
15/01/19 14:50 EGPE 151450Z 23013KT 9999 FEW012 SCT018 BKN032 10/08 Q1001 SW (230°) 15.0mph 10°C 8°C
15/01/19 14:20 EGPE 151420Z 24009KT 9999 FEW008 SCT018 BKN032 09/08 Q1001 WSW (240°) 10.4mph 9°C 8°C
15/01/19 13:50 EGPE 151350Z VRB01KT 9999 FEW008 SCT012 BKN032 08/08 Q1002 N (0°) 1.2mph 8°C 8°C
15/01/19 13:20 EGPE 151320Z VRB01KT 9999 FEW008 SCT012 BKN032 08/08 Q1003 N (0°) 1.2mph 8°C 8°C
15/01/19 12:50 EGPE 151250Z VRB02KT 9999 FEW005 SCT012 BKN030 08/07 Q1003 N (0°) 2.3mph 8°C 7°C
15/01/19 12:20 EGPE 151220Z VRB03KT 9999 3000E RA FEW005 BKN012 08/07 Q1003 RA N (0°) 3.5mph 8°C 7°C
15/01/19 11:50 EGPE 151150Z 20003KT 2000 RA FEW005 BKN014 08/07 Q1004 RA SSW (200°) 3.5mph 8°C 7°C
15/01/19 11:20 EGPE 151120Z 21006KT 6000 -RA FEW005 BKN015 08/07 Q1004 -RA SSW (210°) 6.9mph 8°C 7°C
15/01/19 10:50 EGPE 151050Z 22006KT 6000 RA FEW005 BKN015 08/07 Q1005 RA SW (220°) 6.9mph 8°C 7°C
15/01/19 10:20 EGPE 151020Z 22007KT 6000 RA FEW005 SCT014 BKN020 08/07 Q1005 RA SW (220°) 8.1mph 8°C 7°C
15/01/19 09:50 EGPE 150950Z 22006KT 9999 5000SW -RA FEW005 BKN020 08/07 Q1005 -RA SW (220°) 6.9mph 8°C 7°C
15/01/19 09:20 EGPE 150920Z 24006KT 9999 5000W -RA FEW006 SCT020 BKN032 08/07 Q1006 -RA WSW (240°) 6.9mph 8°C 7°C
15/01/19 08:50 EGPE 150850Z 26005KT 9999 5000W -RA FEW006 BKN020 08/07 Q1006 -RA W (260°) 5.8mph 8°C 7°C
15/01/19 08:20 EGPE 150820Z 25006KT 9999 -RA FEW006 SCT020 08/07 Q1005 -RA WSW (250°) 6.9mph 8°C 7°C
15/01/19 07:20 EGPE 150720Z 25008KT 210V270 9999 FEW030 08/07 Q1005 WSW (250°) 9.2mph 8°C 7°C
15/01/19 06:50 EGPE 150650Z 24012KT 9999 FEW030 09/07 Q1005 WSW (240°) 13.8mph 9°C 7°C
15/01/19 06:20 EGPE 150620Z 27018KT 9999 FEW040 SCT046 09/07 Q1005 W (270°) 20.7mph 9°C 7°C
15/01/19 05:50 EGPE 150550Z 26015KT 9999 RA FEW040 SCT046 09/07 Q1005 RA W (260°) 17.3mph 9°C 7°C
15/01/19 05:20 EGPE 150520Z 26019G29KT 9999 RA SCT020 09/08 Q1005 RA W (260°) 21.9mph 33.4mph 9°C 8°C
15/01/19 04:50 EGPE 150450Z 25014KT 9999 SCT031 10/08 Q1005 WSW (250°) 16.1mph 10°C 8°C
15/01/19 04:20 EGPE 150420Z 25013KT 9999 SCT028 BKN036 10/08 Q1005 WSW (250°) 15.0mph 10°C 8°C
15/01/19 03:50 EGPE 150350Z 25016KT 9999 BKN023 10/08 Q1005 WSW (250°) 18.4mph 10°C 8°C
15/01/19 03:20 EGPE 150320Z 24016KT 9999 BKN024 09/08 Q1006 WSW (240°) 18.4mph 9°C 8°C
15/01/19 02:50 EGPE 150250Z 23019KT 9999 SCT030 BKN036 09/08 Q1006 SW (230°) 21.9mph 9°C 8°C
15/01/19 02:20 EGPE 150220Z 23019KT 9999 SCT030 BKN036 09/08 Q1006 SW (230°) 21.9mph 9°C 8°C
15/01/19 01:50 EGPE 150150Z AUTO 23018KT 9999 NCD 09/07 Q1006 SW (230°) 20.7mph 9°C 7°C
15/01/19 01:20 EGPE 150120Z AUTO 23018KT 9999 DZ BKN036/// 09/07 Q1006 DZ SW (230°) 20.7mph 9°C 7°C
15/01/19 00:50 EGPE 150050Z AUTO 22015KT 9999 SCT049/// 08/07 Q1007 SW (220°) 17.3mph 8°C 7°C
15/01/19 00:20 EGPE 150020Z AUTO 22014KT 9999 -DZ SCT032/// SCT041/// 08/06 Q1007 -DZ SW (220°) 16.1mph 8°C 6°C
14/01/19 23:20 EGPE 142320Z AUTO 22009KT 180V250 9999 BKN035/// 08/06 Q1008 SW (220°) 10.4mph 8°C 6°C
14/01/19 22:50 EGPE 142250Z AUTO 23013KT 9999 SCT035/// 08/06 Q1009 SW (230°) 15.0mph 8°C 6°C
14/01/19 22:20 EGPE 142220Z AUTO 23017KT 9999 NCD 08/06 Q1009 SW (230°) 19.6mph 8°C 6°C
14/01/19 21:50 EGPE 142150Z AUTO 23016KT 9999 SCT030/// OVC038/// 07/06 Q1009 SW (230°) 18.4mph 7°C 6°C
14/01/19 21:20 EGPE 142120Z AUTO 23015KT 9999 BKN033/// 07/05 Q1010 SW (230°) 17.3mph 7°C 5°C
14/01/19 20:50 EGPE 142050Z 22012KT 9999 SCT036 07/05 Q1010 SW (220°) 13.8mph 7°C 5°C
14/01/19 20:20 EGPE 142020Z 22010KT 9999 SCT032 07/05 Q1010 SW (220°) 11.5mph 7°C 5°C
14/01/19 19:20 EGPE 141920Z 21007KT 9999 SCT032 06/04 Q1012 SSW (210°) 8.1mph 6°C 4°C
14/01/19 18:20 EGPE 141820Z 22007KT 9999 FEW018 SCT032 06/04 Q1013 SW (220°) 8.1mph 6°C 4°C
14/01/19 17:50 EGPE 141750Z 23011KT 9999 SCT037 06/04 Q1013 SW (230°) 12.7mph 6°C 4°C
14/01/19 17:20 EGPE 141720Z 22013KT 9999 FEW042 05/03 Q1013 SW (220°) 15.0mph 5°C 3°C
14/01/19 16:50 EGPE 141650Z 22011KT 9999 FEW015 SCT041 05/03 Q1014 SW (220°) 12.7mph 5°C 3°C
14/01/19 16:20 EGPE 141620Z 24011KT 9999 VCSH FEW018 SCT032 BKN043 05/03 Q1014 VCSH WSW (240°) 12.7mph 5°C 3°C
14/01/19 15:20 EGPE 141520Z 23008KT 9999 FEW011 SCT028 05/03 Q1014 SW (230°) 9.2mph 5°C 3°C
14/01/19 14:50 EGPE 141450Z 24011KT 9999 FEW011 SCT028 05/03 Q1015 WSW (240°) 12.7mph 5°C 3°C
14/01/19 14:20 EGPE 141420Z 24014KT 9999 FEW011 SCT028 05/03 Q1015 WSW (240°) 16.1mph 5°C 3°C
14/01/19 13:50 EGPE 141350Z 24018KT 9999 FEW012 SCT030 05/03 Q1015 WSW (240°) 20.7mph 5°C 3°C
14/01/19 13:20 EGPE 141320Z 24017KT 9999 FEW012 SCT030 04/03 Q1015 WSW (240°) 19.6mph 4°C 3°C
14/01/19 12:50 EGPE 141250Z 23012KT 9999 FEW008 SCT030 03/02 Q1016 SW (230°) 13.8mph 3°C 2°C
14/01/19 12:20 EGPE 141220Z 23011KT 9999 FEW008 03/02 Q1016 SW (230°) 12.7mph 3°C 2°C
14/01/19 11:20 EGPE 141120Z 24009KT 9999 FEW005 02/01 Q1017 WSW (240°) 10.4mph 2°C 1°C
14/01/19 10:50 EGPE 141050Z 24010KT 9999 FEW004 01/00 Q1017 WSW (240°) 11.5mph 1°C 0°C
14/01/19 10:20 EGPE 141020Z 24007KT 9999 VCFG FEW008 00/M00 Q1017 VCFG WSW (240°) 8.1mph 0°C 0°C
14/01/19 09:50 EGPE 140950Z 22007KT 9999 VCFG FEW008 M01/M01 Q1017 VCFG SW (220°) 8.1mph -1°C -1°C
14/01/19 09:20 EGPE 140920Z 23008KT 9999 VCFG FEW008 M02/M02 Q1018 VCFG SW (230°) 9.2mph -2°C -2°C
14/01/19 08:50 EGPE 140850Z 23007KT 9999 FEW008 M01/M02 Q1018 SW (230°) 8.1mph -1°C -2°C
14/01/19 08:20 EGPE 140820Z 23009KT 9999 FEW008 M02/M03 Q1017 SW (230°) 10.4mph -2°C -3°C
14/01/19 07:50 EGPE 140750Z 23004KT CAVOK M03/M03 Q1017 SW (230°) 4.6mph -3°C -3°C
14/01/19 07:20 EGPE 140720Z 24003KT CAVOK M03/M03 Q1017 WSW (240°) 3.5mph -3°C -3°C
14/01/19 06:50 EGPE 140650Z 21001KT 9999 FEW020 M02/M03 Q1017 SSW (210°) 1.2mph -2°C -3°C
14/01/19 06:20 EGPE 140620Z AUTO 22003KT 9999 NCD M02/M03 Q1017 SW (220°) 3.5mph -2°C -3°C
14/01/19 05:50 EGPE 140550Z AUTO 21003KT 9999 NCD M02/M03 Q1017 SSW (210°) 3.5mph -2°C -3°C
14/01/19 05:20 EGPE 140520Z AUTO 22003KT 9999 NCD M02/M03 Q1017 SW (220°) 3.5mph -2°C -3°C
14/01/19 04:50 EGPE 140450Z AUTO 22004KT 9999 NCD M01/M02 Q1017 SW (220°) 4.6mph -1°C -2°C
14/01/19 04:20 EGPE 140420Z AUTO 22004KT 9999 FEW011/// BKN019/// M01/M01 Q1017 SW (220°) 4.6mph -1°C -1°C
14/01/19 03:50 EGPE 140350Z AUTO VRB01KT 9999 FEW018/// M00/M01 Q1017 N (0°) 1.2mph 0°C -1°C
14/01/19 03:20 EGPE 140320Z AUTO 22001KT 9999 NCD 01/M00 Q1016 SW (220°) 1.2mph 1°C 0°C
14/01/19 02:50 EGPE 140250Z AUTO 15001KT 9999 SCT046/// 02/00 Q1016 SSE (150°) 1.2mph 2°C 0°C
14/01/19 02:20 EGPE 140220Z AUTO 00000KT 9999 BKN035/// BKN044/// 02/01 Q1016 N (0°) 2°C 1°C
14/01/19 01:50 EGPE 140150Z AUTO 36004KT 9999 BKN032/// BKN036/// 02/01 Q1016 N (360°) 4.6mph 2°C 1°C
14/01/19 01:20 EGPE 140120Z AUTO 36006KT 9999 BKN033/// BKN042/// 03/01 Q1015 N (360°) 6.9mph 3°C 1°C
14/01/19 00:50 EGPE 140050Z AUTO 35008KT 9999 OVC031/// 03/02 Q1015 N (350°) 9.2mph 3°C 2°C
14/01/19 00:20 EGPE 140020Z AUTO 36009KT 9999 SCT019/// BKN026/// 03/01 Q1014 N (360°) 10.4mph 3°C 1°C
13/01/19 23:50 EGPE 132350Z AUTO 03009KT 9999 -RA BKN019/// 03/02 Q1013 -RA NNE (30°) 10.4mph 3°C 2°C
13/01/19 23:20 EGPE 132320Z AUTO 03009KT 6000 -DZ OVC011/// 03/02 Q1013 -DZ NNE (30°) 10.4mph 3°C 2°C
13/01/19 22:50 EGPE 132250Z AUTO 03013KT 5000 DZ SCT009/// BKN013/// 04/03 Q1012 DZ NNE (30°) 15.0mph 4°C 3°C
13/01/19 22:20 EGPE 132220Z AUTO 03010KT 9000 DZ SCT007/// BKN012/// 04/03 Q1012 DZ NNE (30°) 11.5mph 4°C 3°C
13/01/19 21:50 EGPE 132150Z AUTO 04011KT 9000 DZ BKN009/// BKN014/// 04/03 Q1011 DZ NE (40°) 12.7mph 4°C 3°C
13/01/19 21:20 EGPE 132120Z AUTO 03013KT 330V050 9000 DZ SCT011/// BKN016/// 05/04 Q1010 DZ NNE (30°) 15.0mph 5°C 4°C
13/01/19 20:50 EGPE 132050Z 24008KT 9999 FEW008 SCT028 BKN035 05/04 Q1009 WSW (240°) 9.2mph 5°C 4°C
13/01/19 20:20 EGPE 132020Z 26005KT 210V290 9999 -RA FEW008 SCT025 06/04 Q1008 -RA W (260°) 5.8mph 6°C 4°C
13/01/19 19:50 EGPE 131950Z 24009KT 9999 FEW008 SCT028 06/04 Q1008 WSW (240°) 10.4mph 6°C 4°C
13/01/19 18:50 EGPE 131850Z 23013KT 9999 FEW008 SCT035 05/04 Q1006 SW (230°) 15.0mph 5°C 4°C
13/01/19 18:20 EGPE 131820Z 24012KT 9999 FEW008 SCT035 05/03 Q1006 WSW (240°) 13.8mph 5°C 3°C
13/01/19 17:50 EGPE 131750Z 26011KT 9999 FEW008 SCT035 05/03 Q1005 W (260°) 12.7mph 5°C 3°C
13/01/19 17:20 EGPE 131720Z 26010KT 9999 FEW008 SCT032 05/04 Q1004 W (260°) 11.5mph 5°C 4°C
13/01/19 16:50 EGPE 131650Z 26014KT 9999 6000NW VCSH FEW008 SCT018CB BKN036 05/03 Q1004 VCSH W (260°) 16.1mph 5°C 3°C
13/01/19 16:20 EGPE 131620Z 27012KT 9999 6000NW VCSH FEW008 SCT018CB BKN036 06/04 Q1004 VCSH W (270°) 13.8mph 6°C 4°C
13/01/19 15:20 EGPE 131520Z 26015KT 9999 8000N VCSH FEW012 FEW028CB SCT038 06/04 Q1004 VCSH W (260°) 17.3mph 6°C 4°C
13/01/19 14:50 EGPE 131450Z 26020KT 9999 VCSH FEW015 FEW026CB SCT038 06/03 Q1003 VCSH W (260°) 23.0mph 6°C 3°C
13/01/19 14:20 EGPE 131420Z 26019KT 9999 -SHRA FEW012 FEW026CB SCT037 07/04 Q1003 -SHRA W (260°) 21.9mph 7°C 4°C
13/01/19 13:50 EGPE 131350Z 27022G32KT 9999 -SHRA FEW015 FEW026CB SCT035 07/04 Q1003 -SHRA W (270°) 25.3mph 36.8mph 7°C 4°C
13/01/19 13:20 EGPE 131320Z 27020KT 9999 -SHRA FEW015 FEW028CB SCT035 07/04 Q1003 -SHRA W (270°) 23.0mph 7°C 4°C
13/01/19 12:50 EGPE 131250Z 26014KT 9999 -SHRA FEW015 FEW025CB SCT035 07/05 Q1003 -SHRA W (260°) 16.1mph 7°C 5°C
13/01/19 12:20 EGPE 131220Z 27018KT 9999 VCSH FEW015 FEW025CB SCT035 07/04 Q1003 VCSH W (270°) 20.7mph 7°C 4°C
13/01/19 11:50 EGPE 131150Z 27017KT 9999 VCSH FEW015 FEW025CB SCT035 07/04 Q1003 VCSH W (270°) 19.6mph 7°C 4°C
13/01/19 11:20 EGPE 131120Z 28018KT 9999 VCSH FEW017 FEW024CB BKN030 08/04 Q1003 VCSH W (280°) 20.7mph 8°C 4°C
13/01/19 10:20 EGPE 131020Z 28017KT 9999 -SHRA FEW015 FEW025CB SCT032 07/05 Q1003 -SHRA W (280°) 19.6mph 7°C 5°C
13/01/19 09:50 EGPE 130950Z 27019KT 9999 VCSH FEW015 FEW025CB SCT032 07/04 Q1002 VCSH W (270°) 21.9mph 7°C 4°C
13/01/19 08:50 EGPE 130850Z 27016KT 9999 VCSH FEW015 FEW028CB 07/05 Q1002 VCSH W (270°) 18.4mph 7°C 5°C
13/01/19 08:20 EGPE 130820Z 26020KT 9999 VCSH FEW015 FEW025CB 07/05 Q1001 VCSH W (260°) 23.0mph 7°C 5°C
13/01/19 07:50 EGPE 130750Z 28022G34KT 8000 SHRA FEW015 FEW025CB SCT035 08/05 Q1002 SHRA W (280°) 25.3mph 39.1mph 8°C 5°C
13/01/19 07:20 EGPE 130720Z 27024KT 9999 VCSH FEW020 SCT035 BKN049 08/05 Q1002 VCSH W (270°) 27.6mph 8°C 5°C
13/01/19 06:50 EGPE 130650Z 27020KT 9999 VCSH FEW020 SCT040 09/06 Q1002 VCSH W (270°) 23.0mph 9°C 6°C
13/01/19 06:20 EGPE 130620Z 26027KT 9999 VCSH FEW020 09/06 Q1001 VCSH W (260°) 31.1mph 9°C 6°C
13/01/19 05:50 EGPE 130550Z AUTO 26026KT 9999 NCD 09/07 Q1002 W (260°) 29.9mph 9°C 7°C
13/01/19 05:20 EGPE 130520Z AUTO 26023KT 9999 FEW041/// 10/07 Q1002 W (260°) 26.5mph 10°C 7°C
13/01/19 04:20 EGPE 130420Z AUTO 24015KT 9999 BKN018/// 10/08 Q1002 WSW (240°) 17.3mph 10°C 8°C
13/01/19 03:50 EGPE 130350Z AUTO 23020KT 9999 SCT018/// BKN022/// 10/08 Q1003 SW (230°) 23.0mph 10°C 8°C
13/01/19 03:20 EGPE 130320Z AUTO 23019KT 9999 SCT018/// BKN022/// BKN032/// 10/08 Q1003 SW (230°) 21.9mph 10°C 8°C
13/01/19 02:50 EGPE 130250Z AUTO 23022KT 9999 BKN018/// 10/09 Q1004 SW (230°) 25.3mph 10°C 9°C
13/01/19 02:20 EGPE 130220Z AUTO 23020KT 9999 BKN016/// 10/09 Q1004 SW (230°) 23.0mph 10°C 9°C
13/01/19 01:50 EGPE 130150Z AUTO 23020KT 9999 SCT016/// SCT020/// BKN030/// 10/09 Q1004 SW (230°) 23.0mph 10°C 9°C
13/01/19 01:20 EGPE 130120Z AUTO 24019KT 9999 -RA SCT019/// 10/09 Q1004 -RA WSW (240°) 21.9mph 10°C 9°C
13/01/19 00:50 EGPE 130050Z AUTO 24018KT 9999 -RA FEW020/// SCT024/// 10/09 Q1005 -RA WSW (240°) 20.7mph 10°C 9°C
13/01/19 00:20 EGPE 130020Z AUTO 25020KT 9999 -RA BKN021/// 10/08 Q1006 -RA WSW (250°) 23.0mph 10°C 8°C
12/01/19 23:50 EGPE 122350Z AUTO 26020KT 9999 -DZ BKN024/// BKN028/// 11/08 Q1005 -DZ W (260°) 23.0mph 11°C 8°C
12/01/19 23:20 EGPE 122320Z AUTO 24021KT 9999 -RA BKN026/// 10/08 Q1005 -RA WSW (240°) 24.2mph 10°C 8°C
12/01/19 22:50 EGPE 122250Z AUTO 24021KT 9999 -RA SCT025/// SCT029/// 10/08 Q1005 -RA WSW (240°) 24.2mph 10°C 8°C
12/01/19 22:20 EGPE 122220Z AUTO 24019KT 9999 -DZ FEW028/// 10/08 Q1006 -DZ WSW (240°) 21.9mph 10°C 8°C
12/01/19 21:50 EGPE 122150Z AUTO 25024KT 9999 NCD 11/08 Q1006 WSW (250°) 27.6mph 11°C 8°C
12/01/19 21:20 EGPE 122120Z AUTO 25026G36KT 9999 -DZ SCT025/// 11/08 Q1006 -DZ WSW (250°) 29.9mph 41.4mph 11°C 8°C
12/01/19 20:50 EGPE 122050Z 24017KT 9999 FEW010 BKN026 11/08 Q1007 WSW (240°) 19.6mph 11°C 8°C
12/01/19 20:20 EGPE 122020Z 23016KT 9999 FEW010 BKN026 10/08 Q1008 SW (230°) 18.4mph 10°C 8°C
12/01/19 19:50 EGPE 121950Z 25020KT 9999 FEW010 BKN026 11/08 Q1008 WSW (250°) 23.0mph 11°C 8°C
12/01/19 19:20 EGPE 121920Z 25017KT 9999 FEW010 BKN026 11/08 Q1008 WSW (250°) 19.6mph 11°C 8°C
12/01/19 18:20 EGPE 121820Z 24014KT 9999 -RA FEW008 SCT022 BKN044 10/08 Q1009 -RA WSW (240°) 16.1mph 10°C 8°C